This is the latest recevied weather packets stored in our database for station/object VK6DUG. If no packets are shown the sender has not sent any weather packets the latest 10 day(s).
| Time | Temp. | Humidity | Pressure | Rain* | Wind** | Luminosity | Snow |
|---|---|---|---|---|---|---|---|
| 1777779023 | 16.67° C | 71% | 1029.9 hPa | 0 mm | - | 548 W/m² | - |
| 1777778420 | 16.67° C | 72% | 1030 hPa | 0 mm | - | 537 W/m² | - |
| 1777777818 | 16.67° C | 72% | 1029.9 hPa | 0 mm | - | 523 W/m² | - |
| 1777777235 | 15.56° C | 74% | 1030.1 hPa | 0 mm | - | 504 W/m² | - |
| 1777776633 | 16.11° C | 75% | 1030.2 hPa | 0 mm | - | 487 W/m² | - |
| 1777776029 | 15.56° C | 76% | 1030.3 hPa | 0 mm | - | 474 W/m² | - |
| 1777775427 | 15° C | 78% | 1030.3 hPa | 0 mm | - | 457 W/m² | - |
| 1777774825 | 14.44° C | 80% | 1030.5 hPa | 0 mm | - | 430 W/m² | - |
| 1777774222 | 13.89° C | 83% | 1030.5 hPa | 0 mm | - | 405 W/m² | - |
| 1777773619 | 13.33° C | 86% | 1030.6 hPa | 0 mm | - | 377 W/m² | - |
| 1777773016 | 13.33° C | 90% | 1030.6 hPa | 0 mm | - | 291 W/m² | - |
| 1777772434 | 12.78° C | 93% | 1030.6 hPa | 0 mm | - | 241 W/m² | - |
| 1777771831 | 12.22° C | 95% | 1030.6 hPa | 0 mm | - | 209 W/m² | - |
| 1777771227 | 12.22° C | 96% | 1030.6 hPa | 0 mm | - | 147 W/m² | - |
| 1777770624 | 11.11° C | 96% | 1030.7 hPa | 0 mm | - | 127 W/m² | - |
| 1777770022 | 10.56° C | 97% | 1030.7 hPa | 0 mm | - | 118 W/m² | - |
| 1777769419 | 10.56° C | 97% | 1030.7 hPa | 0 mm | - | 114 W/m² | - |
| 1777768817 | 10° C | 97% | 1030.6 hPa | 0 mm | - | 109 W/m² | - |
| 1777768234 | 9.44° C | 97% | 1030.6 hPa | 0 mm | - | 101 W/m² | - |
| 1777767632 | 8.89° C | 97% | 1030.6 hPa | 0 mm | - | 96 W/m² | - |
| 1777767029 | 7.78° C | 97% | 1030.5 hPa | 0 mm | - | 89 W/m² | - |
| 1777766425 | 7.22° C | 97% | 1030.4 hPa | 0 mm | - | 77 W/m² | - |
| 1777765821 | 6.11° C | 96% | 1030.3 hPa | 0 mm | - | 30 W/m² | - |
| 1777765219 | 5.56° C | 96% | 1030 hPa | 0 mm | - | 24 W/m² | - |
| 1777764616 | 5.56° C | 96% | 1030 hPa | 0 mm | - | 20 W/m² | - |
* Rain latest hour (hover to see other rain measurements)
** Current wind speed in m/s (hover to see current wind gust speed)